Hodgdon, Maine
Current Conditions -  °F | °C
As of 9:53 AM on Saturday 20 Dec 2014 (Local Time) from KHUL Reporting Station
Overcast Overcast  
Wind Chill:   Ceiling: 1200
Heat Index: 13°   Visibility: 10mi
Dew Point:   Wind: 6mph
Humidity: 84%   Direction: 20°NNE
Pressure: 30.34"   Gusts: NA
Location:  46.1163°N, 67.9329°W
Report Text: KHUL 201453Z AUTO 02005KT 10SM OVC012 M11/M13 A3034 RMK AO2 SLP284 T11061128 51016
Loading
Personal Weather Stations






























Interactive Weather Map New forecast layout! Learn more

10-Day Weather Forecast

Advertisements
Track Severe Weather on mobile